McConnell AFB, Kansas
Current Conditions -  °F | °C
As of 6:54 AM on Friday 24 Oct 2014 (Local Time) from KWLD Reporting Station
Clear Clear  
Wind Chill: 57°   Ceiling: Unl
Heat Index: 57°   Visibility: 10mi
Dew Point: 56°   Wind: 8mph
Humidity: 96%   Direction: 170°S
Pressure: 30.08"   Gusts: NA
Location:  37.38°N, 97.15°W
Report Text: KWLD 241154Z AUTO 17007KT 10SM CLR 14/13 A3008 RMK AO2 SLP179 T01390133 10150 20139 55001
Loading
Personal Weather Stations






























Interactive Weather Map New forecast layout! Learn more

10-Day Weather Forecast

Advertisements
Track Severe Weather on mobile